createdAt,value
2023-05-08T00:02:13.081Z,92.61
2023-05-08T00:04:40.025Z,92.06
2023-05-08T00:07:06.474Z,92.04
2023-05-08T00:09:35.220Z,91.49
2023-05-08T00:12:01.669Z,92.13
2023-05-08T00:14:30.416Z,92.19
2023-05-08T00:16:57.051Z,92.02
2023-05-08T00:19:23.432Z,91.88
2023-05-08T00:21:49.887Z,91.52
2023-05-08T00:24:16.266Z,90.83
2023-05-08T00:26:44.313Z,91.07
2023-05-08T00:29:11.297Z,90.48
2023-05-08T00:31:37.742Z,91.16
2023-05-08T00:34:04.246Z,91.59
2023-05-08T00:36:30.609Z,91.57
2023-05-08T00:38:59.868Z,92.21
2023-05-08T00:41:26.283Z,92.21
2023-05-08T00:43:53.541Z,92.00
2023-05-08T00:46:20.513Z,91.84
2023-05-08T00:48:47.390Z,91.07
2023-05-08T00:51:15.076Z,91.48
2023-05-08T00:53:43.591Z,91.75
2023-05-08T00:56:14.930Z,91.44
2023-05-08T00:58:42.404Z,91.18
2023-05-08T01:01:09.151Z,90.91
2023-05-08T01:03:39.653Z,90.75
2023-05-08T01:06:06.826Z,90.62
2023-05-08T01:08:33.486Z,89.61
2023-05-08T01:11:15.213Z,89.39
2023-05-08T01:13:44.348Z,91.46
2023-05-08T01:16:35.745Z,92.13
2023-05-08T01:19:18.024Z,92.01
2023-05-08T01:21:58.182Z,92.34
2023-05-08T01:24:51.566Z,91.18
2023-05-08T01:28:17.101Z,91.02
2023-05-08T01:31:04.421Z,91.08
2023-05-08T01:33:53.455Z,90.76
2023-05-08T01:36:50.266Z,91.65
2023-05-08T01:39:29.385Z,91.50
2023-05-08T01:42:13.778Z,91.60
2023-05-08T01:44:52.108Z,91.55
2023-05-08T01:47:23.199Z,91.49
2023-05-08T01:49:56.052Z,90.84
2023-05-08T01:52:34.535Z,91.19
2023-05-08T01:55:08.702Z,91.64
2023-05-08T01:57:38.278Z,91.01
2023-05-08T02:00:06.027Z,91.77
2023-05-08T02:02:34.422Z,91.24
2023-05-08T02:05:06.904Z,91.48
2023-05-08T02:07:37.793Z,90.68
2023-05-08T02:10:06.316Z,91.41
2023-05-08T02:12:34.127Z,92.25
2023-05-08T02:15:02.344Z,92.04
2023-05-08T02:17:31.546Z,91.69
2023-05-08T02:20:01.551Z,91.97
2023-05-08T02:22:30.795Z,91.40
2023-05-08T02:25:03.599Z,91.38
2023-05-08T02:27:31.376Z,91.45
2023-05-08T02:30:01.784Z,90.92
2023-05-08T02:32:30.917Z,91.47
2023-05-08T02:35:03.247Z,91.97
2023-05-08T02:37:31.913Z,91.87
2023-05-08T02:39:58.880Z,92.13
2023-05-08T02:42:26.582Z,92.16
2023-05-08T02:44:53.002Z,91.90
2023-05-08T02:47:24.229Z,91.89
2023-05-08T02:49:54.954Z,91.17
2023-05-08T02:52:30.718Z,91.43
2023-05-08T02:55:18.601Z,91.41
2023-05-08T02:58:03.987Z,91.71
2023-05-08T03:00:35.250Z,92.39
2023-05-08T03:03:22.974Z,91.88
2023-05-08T03:05:53.855Z,91.79
2023-05-08T03:08:30.962Z,91.35
2023-05-08T03:11:01.114Z,90.69
2023-05-08T03:13:31.185Z,90.66
2023-05-08T03:16:01.372Z,91.02
2023-05-08T03:18:59.777Z,91.18
2023-05-08T03:21:28.939Z,91.06
2023-05-08T03:25:36.340Z,91.05
2023-05-08T03:28:05.079Z,91.09
2023-05-08T03:30:36.243Z,91.16
2023-05-08T03:33:04.822Z,91.31
2023-05-08T03:35:31.864Z,91.32
2023-05-08T03:37:58.842Z,91.68
2023-05-08T03:40:27.914Z,91.17
2023-05-08T03:42:55.109Z,90.95
2023-05-08T03:45:22.452Z,91.32
2023-05-08T03:48:09.686Z,91.49
2023-05-08T03:50:38.288Z,91.08
2023-05-08T03:53:04.754Z,90.69
2023-05-08T03:55:32.212Z,90.60
2023-05-08T03:58:21.631Z,90.34
2023-05-08T04:00:51.074Z,90.79
2023-05-08T04:03:39.708Z,90.72
2023-05-08T04:06:13.809Z,91.24
2023-05-08T04:08:48.223Z,91.98
2023-05-08T04:11:31.039Z,91.63
2023-05-08T04:14:08.278Z,91.89
2023-05-08T04:16:45.817Z,92.01
2023-05-08T04:19:19.672Z,91.49
2023-05-08T04:21:48.030Z,91.11
2023-05-08T04:24:17.015Z,91.36
2023-05-08T04:26:45.472Z,91.58
2023-05-08T04:29:12.529Z,91.91
2023-05-08T04:31:40.812Z,92.11
2023-05-08T04:34:09.148Z,92.42
2023-05-08T04:36:35.821Z,92.30
2023-05-08T04:39:02.282Z,92.45
2023-05-08T04:41:28.799Z,92.29
2023-05-08T04:43:55.312Z,91.79
2023-05-08T04:46:21.802Z,90.77
2023-05-08T04:48:48.206Z,90.49
2023-05-08T04:51:14.506Z,90.19
2023-05-08T04:53:40.826Z,89.61
2023-05-08T04:56:07.208Z,90.17
2023-05-08T04:58:33.612Z,90.13
2023-05-08T05:01:04.270Z,89.84
2023-05-08T05:03:30.868Z,89.68
2023-05-08T05:05:58.996Z,90.14
2023-05-08T05:08:26.008Z,89.81
2023-05-08T05:10:52.640Z,89.11
2023-05-08T05:13:19.772Z,89.44
2023-05-08T05:15:46.340Z,89.65
2023-05-08T05:18:13.008Z,89.67
2023-05-08T05:20:39.475Z,89.30
2023-05-08T05:23:05.906Z,88.82
2023-05-08T05:25:32.279Z,88.80
2023-05-08T05:27:58.607Z,88.95
2023-05-08T05:30:24.987Z,88.38
2023-05-08T05:32:51.417Z,87.51
2023-05-08T05:35:17.958Z,87.66
2023-05-08T05:37:44.421Z,86.71
2023-05-08T05:40:13.255Z,87.15
2023-05-08T05:42:39.590Z,87.26
2023-05-08T05:45:06.622Z,87.87
2023-05-08T05:47:33.004Z,87.04
2023-05-08T05:49:59.476Z,86.93
2023-05-08T05:52:25.847Z,86.18
2023-05-08T05:54:52.318Z,86.75
2023-05-08T05:57:18.780Z,87.29
2023-05-08T05:59:52.271Z,86.34
2023-05-08T06:02:20.324Z,87.23
2023-05-08T06:04:46.935Z,87.26
2023-05-08T06:07:13.334Z,86.94
2023-05-08T06:09:39.696Z,87.12
2023-05-08T06:12:06.264Z,86.92
2023-05-08T06:14:35.199Z,86.40
2023-05-08T06:17:01.601Z,86.59
2023-05-08T06:19:28.597Z,88.22
2023-05-08T06:21:55.369Z,86.43
2023-05-08T06:24:22.495Z,85.65
2023-05-08T06:26:48.878Z,85.27
2023-05-08T06:29:16.505Z,84.29
2023-05-08T06:31:45.188Z,84.86
2023-05-08T06:34:11.718Z,85.37
2023-05-08T06:36:38.075Z,84.71
2023-05-08T06:39:06.087Z,83.79
2023-05-08T06:41:32.498Z,84.48
2023-05-08T06:43:59.363Z,85.09
2023-05-08T06:46:26.012Z,84.99
2023-05-08T06:48:52.510Z,84.45
2023-05-08T06:51:19.858Z,84.02
2023-05-08T06:53:46.226Z,83.80
2023-05-08T06:56:12.596Z,84.59
2023-05-08T06:58:38.980Z,83.71
2023-05-08T07:01:05.594Z,84.31
2023-05-08T07:03:32.021Z,84.05
2023-05-08T07:06:01.413Z,84.62
2023-05-08T07:08:30.031Z,84.67
2023-05-08T07:10:56.375Z,85.12
2023-05-08T07:13:22.904Z,85.29
2023-05-08T07:15:49.418Z,84.71
2023-05-08T07:18:15.871Z,84.99
2023-05-08T07:20:42.420Z,85.58
2023-05-08T07:23:12.010Z,85.79
2023-05-08T07:25:38.392Z,85.85
2023-05-08T07:28:07.590Z,85.75
2023-05-08T07:30:36.832Z,85.80
2023-05-08T07:33:03.944Z,85.82
2023-05-08T07:35:30.443Z,85.92
2023-05-08T07:37:56.971Z,86.27
2023-05-08T07:40:23.529Z,86.19
2023-05-08T07:42:52.280Z,85.57
2023-05-08T07:45:18.643Z,85.57
2023-05-08T07:47:58.154Z,85.87
2023-05-08T07:50:33.290Z,85.66
2023-05-08T07:52:59.803Z,85.22
2023-05-08T07:55:26.239Z,84.46
2023-05-08T07:57:52.662Z,84.20
2023-05-08T08:00:19.215Z,83.65
2023-05-08T08:02:48.144Z,84.69
2023-05-08T08:05:14.937Z,83.23
2023-05-08T08:07:41.560Z,82.90
2023-05-08T08:10:10.830Z,82.91
2023-05-08T08:12:37.389Z,82.30
2023-05-08T08:15:04.509Z,81.40
2023-05-08T08:17:30.943Z,81.33
2023-05-08T08:20:01.995Z,80.91
2023-05-08T08:22:30.716Z,80.75
2023-05-08T08:24:57.376Z,81.03
2023-05-08T08:27:24.182Z,79.34
2023-05-08T08:29:52.579Z,78.99
2023-05-08T08:32:25.371Z,77.97
2023-05-08T08:34:52.106Z,77.04
2023-05-08T08:37:23.895Z,76.86
2023-05-08T08:39:50.331Z,76.80
2023-05-08T08:42:16.814Z,77.39
2023-05-08T08:44:45.541Z,76.60
2023-05-08T08:47:12.888Z,75.06
2023-05-08T08:49:44.544Z,75.99
2023-05-08T08:52:32.914Z,75.90
2023-05-08T08:55:04.674Z,76.36
2023-05-08T08:57:40.816Z,72.52
2023-05-08T09:00:11.215Z,72.12
2023-05-08T09:02:37.913Z,71.81
2023-05-08T09:05:04.959Z,68.16
2023-05-08T09:07:33.784Z,67.98
2023-05-08T09:10:06.077Z,68.13
2023-05-08T09:12:32.526Z,67.50
2023-05-08T09:14:58.963Z,66.61
2023-05-08T09:17:25.663Z,65.99
2023-05-08T09:19:54.505Z,64.43
2023-05-08T09:22:37.571Z,63.83
2023-05-08T09:25:04.239Z,64.34
2023-05-08T09:27:31.921Z,63.87
2023-05-08T09:30:07.181Z,66.16
2023-05-08T09:32:42.104Z,65.51
2023-05-08T09:35:09.958Z,65.58
2023-05-08T09:37:41.564Z,62.99
2023-05-08T09:40:17.261Z,63.95
2023-05-08T09:42:43.879Z,63.83
2023-05-08T09:45:11.153Z,65.39
2023-05-08T09:47:39.332Z,65.78
2023-05-08T09:50:19.652Z,68.82
2023-05-08T09:52:53.011Z,61.40
2023-05-08T09:55:20.015Z,60.64
2023-05-08T09:57:57.972Z,62.12
2023-05-08T10:00:31.329Z,63.83
2023-05-08T10:03:02.795Z,61.43
2023-05-08T10:05:32.216Z,62.10
2023-05-08T10:08:18.455Z,58.77
2023-05-08T10:10:45.017Z,60.04
2023-05-08T10:13:14.464Z,56.80
2023-05-08T10:15:42.854Z,58.04
2023-05-08T10:18:13.296Z,56.61
2023-05-08T10:20:42.204Z,55.05
2023-05-08T10:23:14.087Z,54.63
2023-05-08T10:25:45.436Z,56.55
2023-05-08T10:28:36.921Z,55.32
2023-05-08T10:31:07.174Z,55.41
2023-05-08T10:33:35.523Z,54.77
2023-05-08T10:36:02.335Z,55.14
2023-05-08T10:38:33.528Z,55.38
2023-05-08T10:41:01.140Z,53.55
2023-05-08T10:43:32.972Z,53.60
2023-05-08T10:46:07.852Z,53.02
2023-05-08T10:48:48.039Z,53.27
2023-05-08T10:51:27.755Z,49.81
2023-05-08T10:54:02.038Z,49.16
2023-05-08T10:56:28.790Z,44.81
2023-05-08T10:58:57.512Z,42.13
2023-05-08T11:01:25.148Z,44.56
2023-05-08T11:03:52.482Z,43.53
2023-05-08T11:06:45.159Z,43.14
2023-05-08T11:09:31.093Z,39.27
2023-05-08T11:12:26.639Z,38.45
2023-05-08T11:15:01.479Z,43.28
2023-05-08T11:17:28.625Z,46.72
2023-05-08T11:20:03.824Z,47.99
2023-05-08T11:22:39.037Z,48.93
2023-05-08T11:25:10.329Z,51.58
2023-05-08T11:27:49.052Z,53.07
2023-05-08T11:30:37.566Z,53.72
2023-05-08T11:33:04.434Z,52.96
2023-05-08T11:35:44.784Z,55.27
2023-05-08T11:38:18.719Z,55.97
2023-05-08T11:40:58.134Z,54.10
2023-05-08T11:43:33.644Z,55.06
2023-05-08T11:46:01.715Z,55.96
2023-05-08T11:48:28.170Z,56.48
2023-05-08T11:50:54.622Z,53.95
2023-05-08T11:53:21.221Z,56.00
2023-05-08T11:55:48.873Z,54.62
2023-05-08T11:58:16.231Z,53.20
2023-05-08T12:00:45.149Z,54.84
2023-05-08T12:03:16.447Z,55.22
2023-05-08T12:05:44.426Z,56.73
2023-05-08T12:08:12.271Z,56.79
2023-05-08T12:10:51.585Z,57.74
2023-05-08T12:13:26.473Z,57.77
2023-05-08T12:16:00.638Z,57.18
2023-05-08T12:18:29.172Z,58.71
2023-05-08T12:21:00.370Z,59.16
2023-05-08T12:23:29.248Z,60.02
2023-05-08T12:25:59.152Z,60.14
2023-05-08T12:28:25.628Z,59.77
2023-05-08T12:30:52.175Z,60.28
2023-05-08T12:33:19.894Z,60.14
2023-05-08T12:35:46.443Z,61.70
2023-05-08T12:38:12.955Z,61.05
2023-05-08T12:40:48.917Z,61.14
2023-05-08T12:43:15.246Z,61.51
2023-05-08T12:45:42.722Z,61.07
2023-05-08T12:48:11.483Z,63.56
2023-05-08T12:50:42.071Z,64.81
2023-05-08T12:53:17.146Z,65.83
2023-05-08T12:55:54.757Z,67.59
2023-05-08T12:58:25.604Z,67.00
2023-05-08T13:00:53.276Z,67.12
2023-05-08T13:03:27.846Z,67.71
2023-05-08T13:05:56.641Z,68.07
2023-05-08T13:08:34.208Z,67.10
2023-05-08T13:11:02.500Z,67.70
2023-05-08T13:13:33.821Z,66.08
2023-05-08T13:16:05.930Z,65.95
2023-05-08T13:18:33.731Z,65.21
2023-05-08T13:21:01.903Z,66.09
2023-05-08T13:23:28.743Z,68.12
2023-05-08T13:25:55.614Z,70.70
2023-05-08T13:28:21.980Z,70.42
2023-05-08T13:30:53.447Z,73.92
2023-05-08T13:33:19.769Z,77.20
2023-05-08T13:35:46.114Z,80.03
2023-05-08T13:38:12.475Z,81.96
2023-05-08T13:40:38.876Z,85.14
2023-05-08T13:43:05.572Z,87.35
2023-05-08T13:45:32.844Z,88.07
2023-05-08T13:47:59.478Z,85.10
2023-05-08T13:50:25.875Z,83.87
2023-05-08T13:52:54.654Z,84.21
2023-05-08T13:55:22.983Z,82.18
2023-05-08T13:57:50.152Z,82.89
2023-05-08T14:00:17.020Z,81.41
2023-05-08T14:02:43.620Z,81.16
2023-05-08T14:05:10.758Z,80.58
2023-05-08T14:07:37.319Z,80.22
2023-05-08T14:10:04.450Z,81.16
2023-05-08T14:12:31.038Z,78.74
2023-05-08T14:14:58.110Z,79.33
2023-05-08T14:17:24.515Z,78.62
2023-05-08T14:19:50.884Z,75.37
2023-05-08T14:22:17.294Z,75.59
2023-05-08T14:24:44.310Z,77.03
2023-05-08T14:27:11.189Z,77.17
2023-05-08T14:29:37.656Z,78.68
2023-05-08T14:32:04.269Z,77.37
2023-05-08T14:34:30.884Z,76.05
2023-05-08T14:36:57.232Z,76.54
2023-05-08T14:39:23.836Z,76.40
2023-05-08T14:42:14.384Z,75.90
2023-05-08T14:44:36.835Z,77.21
2023-05-08T14:47:03.341Z,76.13
2023-05-08T14:49:37.546Z,77.76
2023-05-08T14:52:06.132Z,77.38
2023-05-08T14:54:32.888Z,77.96
2023-05-08T14:57:01.477Z,77.69
2023-05-08T14:59:28.093Z,77.92
2023-05-08T15:01:54.604Z,76.69
2023-05-08T15:04:21.286Z,75.63
2023-05-08T15:06:47.986Z,75.88
2023-05-08T15:09:16.321Z,75.15
2023-05-08T15:11:43.013Z,76.01
2023-05-08T15:14:09.352Z,72.86
2023-05-08T15:16:35.791Z,71.48
2023-05-08T15:19:02.238Z,70.67
2023-05-08T15:21:28.774Z,68.47
2023-05-08T15:23:57.432Z,68.80
2023-05-08T15:26:23.874Z,67.42
2023-05-08T15:28:50.961Z,67.61
2023-05-08T15:31:18.174Z,66.59
2023-05-08T15:33:46.462Z,64.11
2023-05-08T15:36:13.479Z,65.19
2023-05-08T15:38:41.120Z,65.58
2023-05-08T15:41:07.974Z,64.90
2023-05-08T15:43:34.327Z,65.65
2023-05-08T15:46:00.745Z,63.79
2023-05-08T15:48:27.241Z,61.54
2023-05-08T15:50:53.595Z,58.82
2023-05-08T15:53:19.977Z,60.42
2023-05-08T15:55:46.336Z,61.70
2023-05-08T15:58:12.718Z,60.45
2023-05-08T16:00:44.517Z,60.11
2023-05-08T16:03:11.966Z,60.02
2023-05-08T16:05:39.395Z,58.31
2023-05-08T16:08:05.971Z,60.19
2023-05-08T16:10:32.320Z,60.30
2023-05-08T16:12:58.747Z,61.00
2023-05-08T16:15:26.499Z,60.53
2023-05-08T16:17:52.872Z,61.23
2023-05-08T16:20:19.514Z,60.57
2023-05-08T16:22:45.985Z,60.92
2023-05-08T16:25:12.812Z,61.01
2023-05-08T16:27:39.333Z,59.80
2023-05-08T16:30:06.670Z,60.24
2023-05-08T16:32:33.020Z,59.04
2023-05-08T16:34:59.401Z,61.62
2023-05-08T16:37:25.848Z,61.66
2023-05-08T16:39:52.165Z,61.25
2023-05-08T16:42:21.355Z,61.16
2023-05-08T16:44:47.761Z,62.10
2023-05-08T16:47:14.498Z,62.40
2023-05-08T16:49:40.977Z,60.54
2023-05-08T16:52:07.621Z,59.19
2023-05-08T16:54:33.962Z,59.65
2023-05-08T16:57:00.294Z,60.45
2023-05-08T16:59:26.881Z,59.17
2023-05-08T17:01:53.219Z,58.85
2023-05-08T17:04:19.634Z,60.59
2023-05-08T17:06:46.064Z,60.86
2023-05-08T17:09:12.418Z,60.29
2023-05-08T17:11:38.807Z,59.77
2023-05-08T17:14:07.512Z,59.54
2023-05-08T17:16:34.031Z,60.32
2023-05-08T17:19:00.562Z,59.69
2023-05-08T17:21:27.041Z,60.08
2023-05-08T17:23:53.375Z,61.04
2023-05-08T17:26:19.756Z,60.25
2023-05-08T17:28:46.134Z,60.40
2023-05-08T17:31:13.090Z,61.80
2023-05-08T17:33:39.415Z,63.06
2023-05-08T17:36:06.108Z,62.29
2023-05-08T17:38:32.526Z,61.60
2023-05-08T17:40:58.925Z,61.58
2023-05-08T17:43:28.426Z,62.69
2023-05-08T17:45:54.838Z,63.29
2023-05-08T17:48:21.243Z,63.43
2023-05-08T17:50:47.643Z,62.34
2023-05-08T17:53:14.035Z,64.16
2023-05-08T17:55:40.553Z,64.38
2023-05-08T17:58:06.932Z,65.08
2023-05-08T18:00:33.298Z,65.84
2023-05-08T18:02:59.731Z,66.34
2023-05-08T18:05:26.370Z,66.81
2023-05-08T18:07:53.854Z,67.65
2023-05-08T18:10:21.048Z,67.20
2023-05-08T18:12:47.569Z,67.12
2023-05-08T18:15:14.152Z,67.81
2023-05-08T18:17:40.989Z,68.05
2023-05-08T18:20:09.270Z,69.03
2023-05-08T18:22:35.738Z,69.56
2023-05-08T18:25:02.389Z,69.76
2023-05-08T18:27:28.954Z,69.25
2023-05-08T18:29:55.333Z,68.97
2023-05-08T18:32:21.708Z,69.22
2023-05-08T18:34:48.089Z,69.00
2023-05-08T18:37:14.512Z,69.66
2023-05-08T18:39:40.840Z,70.35
2023-05-08T18:42:07.368Z,69.84
2023-05-08T18:44:34.143Z,70.43
2023-05-08T18:47:01.658Z,70.54
2023-05-08T18:49:29.187Z,70.78
2023-05-08T18:51:55.609Z,71.46
2023-05-08T18:54:26.264Z,71.47
2023-05-08T18:57:02.284Z,71.91
2023-05-08T18:59:28.947Z,72.04
2023-05-08T19:01:55.386Z,72.01
2023-05-08T19:04:21.716Z,71.75
2023-05-08T19:06:48.171Z,71.66
2023-05-08T19:09:14.652Z,71.43
2023-05-08T19:11:40.999Z,72.17
2023-05-08T19:14:07.527Z,72.65
2023-05-08T19:16:33.968Z,72.96
2023-05-08T19:19:00.342Z,73.43
2023-05-08T19:21:27.178Z,73.59
2023-05-08T19:23:53.507Z,73.47
2023-05-08T19:26:19.922Z,73.72
2023-05-08T19:28:46.298Z,73.17
2023-05-08T19:31:12.728Z,73.41
2023-05-08T19:33:39.133Z,73.38
2023-05-08T19:36:05.601Z,73.28
2023-05-08T19:38:32.085Z,73.26
2023-05-08T19:40:59.032Z,73.59
2023-05-08T19:43:28.074Z,73.07
2023-05-08T19:45:55.514Z,73.17
2023-05-08T19:48:25.169Z,73.00
2023-05-08T19:50:54.663Z,73.04
2023-05-08T19:53:33.846Z,73.24
2023-05-08T19:56:18.441Z,72.65
2023-05-08T19:58:44.710Z,71.67
2023-05-08T20:01:11.317Z,71.91
2023-05-08T20:03:37.882Z,72.30
2023-05-08T20:06:04.442Z,71.67
2023-05-08T20:08:30.848Z,72.21
2023-05-08T20:11:02.121Z,71.96
2023-05-08T20:13:28.489Z,72.94
2023-05-08T20:15:54.884Z,72.92
2023-05-08T20:18:21.298Z,73.36
2023-05-08T20:20:47.609Z,74.83
2023-05-08T20:23:13.958Z,74.93
2023-05-08T20:25:40.464Z,74.80
2023-05-08T20:28:07.119Z,74.48
2023-05-08T20:30:33.635Z,74.48
2023-05-08T20:33:04.732Z,74.35
2023-05-08T20:35:32.090Z,73.90
2023-05-08T20:37:58.512Z,74.06
2023-05-08T20:40:24.921Z,73.89
2023-05-08T20:42:51.259Z,73.44
2023-05-08T20:45:17.782Z,72.79
2023-05-08T20:47:44.182Z,73.59
2023-05-08T20:50:10.804Z,73.61
2023-05-08T20:52:38.464Z,73.26
2023-05-08T20:55:06.369Z,74.28
2023-05-08T20:57:32.691Z,73.85
2023-05-08T20:59:59.148Z,74.10
2023-05-08T21:02:25.591Z,73.92
2023-05-08T21:04:52.781Z,73.98
2023-05-08T21:07:19.164Z,74.66
2023-05-08T21:09:45.870Z,74.92
2023-05-08T21:12:12.261Z,74.91
2023-05-08T21:14:38.602Z,73.53
2023-05-08T21:17:05.078Z,72.12
2023-05-08T21:19:31.995Z,73.02
2023-05-08T21:21:58.409Z,73.55
2023-05-08T21:24:25.646Z,73.20
2023-05-08T21:26:53.135Z,73.65
2023-05-08T21:29:19.933Z,74.71
2023-05-08T21:31:46.295Z,74.37
2023-05-08T21:34:13.336Z,74.71
2023-05-08T21:36:39.699Z,74.38
2023-05-08T21:39:06.062Z,74.48
2023-05-08T21:41:32.918Z,74.35
2023-05-08T21:43:59.324Z,74.74
2023-05-08T21:46:25.693Z,74.68
2023-05-08T21:48:52.048Z,74.15
2023-05-08T21:51:20.850Z,73.15
2023-05-08T21:53:47.212Z,73.46
2023-05-08T21:56:13.574Z,73.39
2023-05-08T21:58:40.008Z,75.25
2023-05-08T22:01:06.647Z,75.47
2023-05-08T22:03:33.234Z,75.60
2023-05-08T22:05:59.675Z,74.82
2023-05-08T22:08:26.328Z,74.27
2023-05-08T22:10:52.762Z,75.25
2023-05-08T22:13:19.129Z,75.39
2023-05-08T22:15:45.716Z,75.93
2023-05-08T22:18:12.116Z,76.03
2023-05-08T22:20:38.454Z,76.22
2023-05-08T22:23:04.809Z,76.27
2023-05-08T22:25:31.227Z,76.07
2023-05-08T22:27:57.703Z,76.88
2023-05-08T22:30:24.458Z,76.03
2023-05-08T22:32:56.145Z,76.88
2023-05-08T22:35:24.420Z,76.64
2023-05-08T22:37:52.372Z,77.15
2023-05-08T22:40:18.855Z,77.88
2023-05-08T22:42:50.196Z,78.26
2023-05-08T22:45:16.948Z,77.56
2023-05-08T22:47:43.724Z,78.01
2023-05-08T22:50:11.581Z,78.36
2023-05-08T22:52:39.051Z,79.19
2023-05-08T22:55:06.957Z,81.54
2023-05-08T22:57:33.434Z,80.47
2023-05-08T22:59:59.888Z,80.88
2023-05-08T23:02:31.569Z,80.58
2023-05-08T23:04:57.934Z,80.04
2023-05-08T23:07:24.254Z,80.33
2023-05-08T23:09:50.588Z,81.57
2023-05-08T23:12:16.918Z,81.18
2023-05-08T23:14:43.270Z,80.59
2023-05-08T23:17:13.835Z,80.04
2023-05-08T23:19:41.863Z,80.24
2023-05-08T23:22:08.952Z,82.18
2023-05-08T23:24:35.976Z,82.10
2023-05-08T23:27:02.311Z,80.87
2023-05-08T23:29:28.909Z,81.65
2023-05-08T23:31:55.299Z,81.62
2023-05-08T23:34:21.636Z,81.34
2023-05-08T23:36:48.032Z,81.45
2023-05-08T23:39:14.467Z,81.30
2023-05-08T23:41:40.799Z,82.72
2023-05-08T23:44:07.114Z,83.97
2023-05-08T23:46:33.513Z,84.37
2023-05-08T23:49:00.302Z,84.90
2023-05-08T23:51:26.951Z,85.52
2023-05-08T23:53:53.349Z,86.30
2023-05-08T23:56:19.659Z,87.25
2023-05-08T23:58:45.997Z,87.97
